This is the latest recevied weather packets stored in our database for station/object OE6PLD-13. If no packets are shown the sender has not sent any weather packets the latest 1 day(s).
| Time | Temp. | Humidity | Pressure | Rain* | Wind** | Luminosity | Snow |
|---|---|---|---|---|---|---|---|
| 1777964989 | 20° C | 51% | 1009.5 hPa | 0.76 mm | 0 m/s | 399 W/m² | - |
| 1777964806 | 19.44° C | 53% | 1009.5 hPa | 0.76 mm | 0 m/s | 418 W/m² | - |
| 1777964622 | 18.89° C | 55% | 1009.6 hPa | 0.76 mm | 0 m/s | 429 W/m² | - |
| 1777964439 | 18.33° C | 55% | 1009.6 hPa | 0.76 mm | 0.45 m/s, 90° | 365 W/m² | - |
| 1777964255 | 17.78° C | 57% | 1009.7 hPa | 0.76 mm | 0 m/s | 358 W/m² | - |
| 1777964072 | 17.78° C | 58% | 1009.8 hPa | 0.76 mm | 0 m/s | 237 W/m² | - |
| 1777963889 | 17.78° C | 56% | 1009.6 hPa | 0.76 mm | 0 m/s | 280 W/m² | - |
| 1777963706 | 17.78° C | 57% | 1009.9 hPa | 0.76 mm | 0 m/s | 201 W/m² | - |
| 1777963522 | 17.78° C | 57% | 1009.8 hPa | 0.76 mm | 0 m/s | 174 W/m² | - |
| 1777963339 | 17.78° C | 58% | 1009.8 hPa | 0.76 mm | 0 m/s | 197 W/m² | - |
| 1777963157 | 17.22° C | 58% | 1010 hPa | 0.76 mm | 0 m/s | 370 W/m² | - |
| 1777962972 | 16.67° C | 58% | 1009.7 hPa | 0.76 mm | 0 m/s | 356 W/m² | - |
| 1777962789 | 16.67° C | 59% | 1009.8 hPa | 0.76 mm | 0 m/s | 375 W/m² | - |
| 1777962605 | 17.22° C | 58% | 1009.7 hPa | 0.76 mm | 0 m/s | 359 W/m² | - |
| 1777962422 | 16.67° C | 60% | 1009.7 hPa | 0.76 mm | 0 m/s | 339 W/m² | - |
| 1777962239 | 15.56° C | 63% | 1009.8 hPa | 0.76 mm | 0 m/s | 345 W/m² | - |
| 1777962055 | 15° C | 64% | 1009.8 hPa | 0.76 mm | 0 m/s | 347 W/m² | - |
| 1777961872 | 15° C | 66% | 1009.6 hPa | 0.76 mm | 0 m/s | 317 W/m² | - |
| 1777961689 | 15° C | 64% | 1009.7 hPa | 0.76 mm | 0 m/s | 296 W/m² | - |
| 1777961505 | 15° C | 65% | 1009.6 hPa | 0.76 mm | 0 m/s | 275 W/m² | - |
| 1777961322 | 13.89° C | 70% | 1009.6 hPa | 0.76 mm | 0 m/s | 246 W/m² | - |
| 1777961138 | 13.89° C | 70% | 1009.7 hPa | 0.76 mm | 0 m/s | 195 W/m² | - |
| 1777960955 | 13.33° C | 72% | 1009.7 hPa | 0.76 mm | 0 m/s | 172 W/m² | - |
| 1777960772 | 13.33° C | 73% | 1009.9 hPa | 0.76 mm | 0 m/s | 171 W/m² | - |
| 1777960588 | 12.22° C | 76% | 1009.7 hPa | 0.76 mm | 0 m/s | 167 W/m² | - |
* Rain latest hour (hover to see other rain measurements)
** Current wind speed in m/s (hover to see current wind gust speed)